sensor_id;sensor_type;location;lat;lon;timestamp;temperature;humidity
28438;DHT22;15667;52.376;9.708;2022-08-24T04:26:57;20.00;99.90
28438;DHT22;15667;52.376;9.708;2022-08-24T04:29:35;20.00;99.90
28438;DHT22;15667;52.376;9.708;2022-08-24T04:32:01;19.80;99.90
28438;DHT22;15667;52.376;9.708;2022-08-24T04:34:27;19.60;99.90
28438;DHT22;15667;52.376;9.708;2022-08-24T04:36:53;19.70;99.90
28438;DHT22;15667;52.376;9.708;2022-08-24T04:39:19;19.60;99.90
28438;DHT22;15667;52.376;9.708;2022-08-24T04:41:50;19.60;99.90
28438;DHT22;15667;52.376;9.708;2022-08-24T04:44:24;19.50;99.90
28438;DHT22;15667;52.376;9.708;2022-08-24T04:46:50;19.50;99.90
28438;DHT22;15667;52.376;9.708;2022-08-24T04:49:22;19.50;99.90
28438;DHT22;15667;52.376;9.708;2022-08-24T04:51:48;19.50;99.90
28438;DHT22;15667;52.376;9.708;2022-08-24T04:54:14;19.40;99.90
28438;DHT22;15667;52.376;9.708;2022-08-24T04:56:43;19.40;99.90
28438;DHT22;15667;52.376;9.708;2022-08-24T04:59:28;19.50;99.90
28438;DHT22;15667;52.376;9.708;2022-08-24T05:01:54;19.50;99.90
28438;DHT22;15667;52.376;9.708;2022-08-24T05:04:20;19.40;99.90
28438;DHT22;15667;52.376;9.708;2022-08-24T05:06:46;19.40;99.90
28438;DHT22;15667;52.376;9.708;2022-08-24T05:09:15;19.40;99.90
28438;DHT22;15667;52.376;9.708;2022-08-24T05:11:50;19.60;99.90
28438;DHT22;15667;52.376;9.708;2022-08-24T05:14:17;19.80;99.90
28438;DHT22;15667;52.376;9.708;2022-08-24T05:16:45;19.80;99.90
28438;DHT22;15667;52.376;9.708;2022-08-24T05:19:10;19.80;99.90
28438;DHT22;15667;52.376;9.708;2022-08-24T05:21:54;20.00;99.90
28438;DHT22;15667;52.376;9.708;2022-08-24T05:28:27;20.00;99.90
28438;DHT22;15667;52.376;9.708;2022-08-24T05:31:04;19.80;99.90
28438;DHT22;15667;52.376;9.708;2022-08-24T05:34:00;19.70;99.90
28438;DHT22;15667;52.376;9.708;2022-08-24T05:43:12;19.60;99.90
28438;DHT22;15667;52.376;9.708;2022-08-24T05:45:41;19.80;99.90
28438;DHT22;15667;52.376;9.708;2022-08-24T05:48:07;19.70;99.90
28438;DHT22;15667;52.376;9.708;2022-08-24T05:50:33;19.80;99.90
28438;DHT22;15667;52.376;9.708;2022-08-24T05:52:59;19.70;99.90
28438;DHT22;15667;52.376;9.708;2022-08-24T05:55:24;19.80;99.90
28438;DHT22;15667;52.376;9.708;2022-08-24T05:57:50;19.80;99.90
28438;DHT22;15667;52.376;9.708;2022-08-24T06:00:17;19.90;99.90
28438;DHT22;15667;52.376;9.708;2022-08-24T06:02:49;19.90;99.90
28438;DHT22;15667;52.376;9.708;2022-08-24T06:05:22;19.90;99.90
28438;DHT22;15667;52.376;9.708;2022-08-24T06:07:52;20.00;99.90
28438;DHT22;15667;52.376;9.708;2022-08-24T06:10:23;20.00;99.90
28438;DHT22;15667;52.376;9.708;2022-08-24T06:12:52;20.10;99.90
28438;DHT22;15667;52.376;9.708;2022-08-24T06:15:18;20.20;99.90
28438;DHT22;15667;52.376;9.708;2022-08-24T06:17:46;20.30;99.90
28438;DHT22;15667;52.376;9.708;2022-08-24T06:20:13;20.30;99.90
28438;DHT22;15667;52.376;9.708;2022-08-24T06:22:42;20.40;99.90
28438;DHT22;15667;52.376;9.708;2022-08-24T06:25:08;20.40;99.90
28438;DHT22;15667;52.376;9.708;2022-08-24T06:27:52;20.50;99.90
28438;DHT22;15667;52.376;9.708;2022-08-24T06:30:18;20.60;99.90
28438;DHT22;15667;52.376;9.708;2022-08-24T06:32:44;20.70;99.90
28438;DHT22;15667;52.376;9.708;2022-08-24T06:35:09;20.70;99.90
28438;DHT22;15667;52.376;9.708;2022-08-24T06:37:35;20.70;99.90
28438;DHT22;15667;52.376;9.708;2022-08-24T06:40:01;20.90;99.90
28438;DHT22;15667;52.376;9.708;2022-08-24T06:42:27;21.00;99.90
28438;DHT22;15667;52.376;9.708;2022-08-24T06:45:10;21.00;99.90
28438;DHT22;15667;52.376;9.708;2022-08-24T06:47:36;21.20;99.90
28438;DHT22;15667;52.376;9.708;2022-08-24T06:50:02;21.30;99.90
28438;DHT22;15667;52.376;9.708;2022-08-24T06:52:29;21.40;99.90
28438;DHT22;15667;52.376;9.708;2022-08-24T06:54:55;21.50;99.90
28438;DHT22;15667;52.376;9.708;2022-08-24T06:57:20;21.60;99.90
28438;DHT22;15667;52.376;9.708;2022-08-24T06:59:47;21.70;99.90
28438;DHT22;15667;52.376;9.708;2022-08-24T07:02:25;21.80;99.90
28438;DHT22;15667;52.376;9.708;2022-08-24T07:04:54;21.80;99.90
28438;DHT22;15667;52.376;9.708;2022-08-24T07:07:21;21.90;99.90
28438;DHT22;15667;52.376;9.708;2022-08-24T07:09:48;22.00;99.90
28438;DHT22;15667;52.376;9.708;2022-08-24T07:12:14;22.10;99.90
28438;DHT22;15667;52.376;9.708;2022-08-24T07:14:40;22.10;99.90
28438;DHT22;15667;52.376;9.708;2022-08-24T07:17:08;22.30;99.90
28438;DHT22;15667;52.376;9.708;2022-08-24T07:19:35;22.30;99.90
28438;DHT22;15667;52.376;9.708;2022-08-24T07:22:04;22.50;99.90
28438;DHT22;15667;52.376;9.708;2022-08-24T07:24:29;22.50;99.90
28438;DHT22;15667;52.376;9.708;2022-08-24T07:26:55;22.60;99.90
28438;DHT22;15667;52.376;9.708;2022-08-24T07:29:22;22.70;99.90
28438;DHT22;15667;52.376;9.708;2022-08-24T07:31:48;22.80;99.90
28438;DHT22;15667;52.376;9.708;2022-08-24T07:34:13;22.90;99.90
28438;DHT22;15667;52.376;9.708;2022-08-24T07:36:40;22.90;99.90
28438;DHT22;15667;52.376;9.708;2022-08-24T07:39:06;23.00;99.90
28438;DHT22;15667;52.376;9.708;2022-08-24T07:41:40;23.10;99.90
28438;DHT22;15667;52.376;9.708;2022-08-24T07:44:06;23.10;99.90
28438;DHT22;15667;52.376;9.708;2022-08-24T07:46:32;23.20;99.90
28438;DHT22;15667;52.376;9.708;2022-08-24T07:48:58;23.30;99.90
28438;DHT22;15667;52.376;9.708;2022-08-24T07:51:24;23.40;99.90
28438;DHT22;15667;52.376;9.708;2022-08-24T07:53:50;23.50;99.90
28438;DHT22;15667;52.376;9.708;2022-08-24T07:56:15;23.60;99.90
28438;DHT22;15667;52.376;9.708;2022-08-24T07:58:41;23.60;99.90
28438;DHT22;15667;52.376;9.708;2022-08-24T08:01:09;23.80;99.90
28438;DHT22;15667;52.376;9.708;2022-08-24T08:03:35;23.80;99.90
28438;DHT22;15667;52.376;9.708;2022-08-24T08:06:09;23.90;99.90
28438;DHT22;15667;52.376;9.708;2022-08-24T08:08:39;24.00;99.90
28438;DHT22;15667;52.376;9.708;2022-08-24T08:11:18;24.10;99.90
28438;DHT22;15667;52.376;9.708;2022-08-24T08:13:44;24.10;99.90
28438;DHT22;15667;52.376;9.708;2022-08-24T08:16:13;24.20;99.90
28438;DHT22;15667;52.376;9.708;2022-08-24T08:18:41;24.30;99.90
28438;DHT22;15667;52.376;9.708;2022-08-24T08:28:08;24.70;99.90
28438;DHT22;15667;52.376;9.708;2022-08-24T14:33:30;32.00;75.60
28438;DHT22;15667;52.376;9.708;2022-08-24T14:38:58;31.80;75.90
28438;DHT22;15667;52.376;9.708;2022-08-24T14:41:57;31.50;76.30
28438;DHT22;15667;52.376;9.708;2022-08-24T14:49:34;31.40;75.50
28438;DHT22;15667;52.376;9.708;2022-08-24T14:55:11;31.30;76.80
28438;DHT22;15667;52.376;9.708;2022-08-24T15:08:51;30.40;77.30
28438;DHT22;15667;52.376;9.708;2022-08-24T15:11:24;30.30;77.20
28438;DHT22;15667;52.376;9.708;2022-08-24T15:16:50;30.10;77.50
28438;DHT22;15667;52.376;9.708;2022-08-24T15:19:43;30.10;77.20
28438;DHT22;15667;52.376;9.708;2022-08-24T15:22:29;30.10;78.00
28438;DHT22;15667;52.376;9.708;2022-08-24T15:27:55;29.80;78.30
28438;DHT22;15667;52.376;9.708;2022-08-24T15:35:28;29.90;78.30
28438;DHT22;15667;52.376;9.708;2022-08-24T15:37:55;29.70;78.40
28438;DHT22;15667;52.376;9.708;2022-08-24T15:40:28;29.70;78.40
28438;DHT22;15667;52.376;9.708;2022-08-24T15:43:03;29.70;78.30
28438;DHT22;15667;52.376;9.708;2022-08-24T15:45:30;29.70;79.60
28438;DHT22;15667;52.376;9.708;2022-08-24T15:47:59;29.70;79.60
28438;DHT22;15667;52.376;9.708;2022-08-24T15:50:32;29.60;79.40
28438;DHT22;15667;52.376;9.708;2022-08-24T15:53:04;29.50;79.20
28438;DHT22;15667;52.376;9.708;2022-08-24T16:00:37;29.40;79.60
28438;DHT22;15667;52.376;9.708;2022-08-24T16:03:45;29.40;80.30
28438;DHT22;15667;52.376;9.708;2022-08-24T16:06:20;29.30;79.50
28438;DHT22;15667;52.376;9.708;2022-08-24T16:09:11;29.30;79.70
28438;DHT22;15667;52.376;9.708;2022-08-24T16:11:57;29.30;80.30
28438;DHT22;15667;52.376;9.708;2022-08-24T16:14:30;29.30;79.50
28438;DHT22;15667;52.376;9.708;2022-08-24T16:16:57;29.30;79.60
28438;DHT22;15667;52.376;9.708;2022-08-24T16:19:33;29.20;79.20
28438;DHT22;15667;52.376;9.708;2022-08-24T16:22:05;29.20;78.70
28438;DHT22;15667;52.376;9.708;2022-08-24T16:24:36;29.20;79.30
28438;DHT22;15667;52.376;9.708;2022-08-24T16:32:28;29.10;78.60
28438;DHT22;15667;52.376;9.708;2022-08-24T16:50:33;28.70;78.70
28438;DHT22;15667;52.376;9.708;2022-08-24T16:52:59;28.60;78.60
28438;DHT22;15667;52.376;9.708;2022-08-24T16:55:25;28.60;78.90
28438;DHT22;15667;52.376;9.708;2022-08-24T16:57:53;28.50;78.80
28438;DHT22;15667;52.376;9.708;2022-08-24T17:00:20;28.60;78.50
28438;DHT22;15667;52.376;9.708;2022-08-24T17:02:47;28.60;78.40
28438;DHT22;15667;52.376;9.708;2022-08-24T17:05:16;28.60;78.70
28438;DHT22;15667;52.376;9.708;2022-08-24T17:07:42;28.60;79.00
28438;DHT22;15667;52.376;9.708;2022-08-24T17:10:10;28.60;79.00
28438;DHT22;15667;52.376;9.708;2022-08-24T17:12:37;28.50;79.00
28438;DHT22;15667;52.376;9.708;2022-08-24T17:15:04;28.40;79.00
28438;DHT22;15667;52.376;9.708;2022-08-24T17:17:31;28.40;79.10
28438;DHT22;15667;52.376;9.708;2022-08-24T17:19:58;28.30;79.40
28438;DHT22;15667;52.376;9.708;2022-08-24T17:22:24;28.30;79.70
28438;DHT22;15667;52.376;9.708;2022-08-24T17:24:50;28.30;79.10
28438;DHT22;15667;52.376;9.708;2022-08-24T17:27:21;28.20;79.20
28438;DHT22;15667;52.376;9.708;2022-08-24T17:29:48;28.20;78.60
28438;DHT22;15667;52.376;9.708;2022-08-24T17:32:14;28.20;78.60
28438;DHT22;15667;52.376;9.708;2022-08-24T17:34:45;28.20;79.00
28438;DHT22;15667;52.376;9.708;2022-08-24T17:37:30;28.10;80.70
28438;DHT22;15667;52.376;9.708;2022-08-24T17:40:22;28.20;80.30
28438;DHT22;15667;52.376;9.708;2022-08-24T17:42:49;28.10;79.50
28438;DHT22;15667;52.376;9.708;2022-08-24T17:45:15;28.10;79.80
28438;DHT22;15667;52.376;9.708;2022-08-24T17:47:41;28.10;80.30
28438;DHT22;15667;52.376;9.708;2022-08-24T17:50:09;28.00;80.10
28438;DHT22;15667;52.376;9.708;2022-08-24T17:52:36;27.90;80.40
28438;DHT22;15667;52.376;9.708;2022-08-24T17:55:04;27.90;81.20
28438;DHT22;15667;52.376;9.708;2022-08-24T17:57:30;27.80;80.70
28438;DHT22;15667;52.376;9.708;2022-08-24T17:59:59;27.70;81.50
28438;DHT22;15667;52.376;9.708;2022-08-24T18:02:25;27.70;81.50
28438;DHT22;15667;52.376;9.708;2022-08-24T18:04:51;27.70;82.40
28438;DHT22;15667;52.376;9.708;2022-08-24T18:07:20;27.70;82.50
28438;DHT22;15667;52.376;9.708;2022-08-24T18:09:53;27.60;82.10
28438;DHT22;15667;52.376;9.708;2022-08-24T18:12:21;27.60;82.60
28438;DHT22;15667;52.376;9.708;2022-08-24T18:14:47;27.50;82.90
28438;DHT22;15667;52.376;9.708;2022-08-24T18:17:17;27.40;83.10
28438;DHT22;15667;52.376;9.708;2022-08-24T18:19:44;27.40;83.20
28438;DHT22;15667;52.376;9.708;2022-08-24T18:22:14;27.40;83.70
28438;DHT22;15667;52.376;9.708;2022-08-24T18:24:40;27.30;83.70
28438;DHT22;15667;52.376;9.708;2022-08-24T18:27:28;27.30;83.90
28438;DHT22;15667;52.376;9.708;2022-08-24T18:29:57;27.30;83.90
28438;DHT22;15667;52.376;9.708;2022-08-24T18:32:25;27.20;84.50
28438;DHT22;15667;52.376;9.708;2022-08-24T18:34:50;27.20;84.60
28438;DHT22;15667;52.376;9.708;2022-08-24T18:37:16;27.10;85.50
28438;DHT22;15667;52.376;9.708;2022-08-24T18:39:42;27.00;85.40
28438;DHT22;15667;52.376;9.708;2022-08-24T18:42:08;27.00;85.90
28438;DHT22;15667;52.376;9.708;2022-08-24T18:44:37;27.00;85.80
28438;DHT22;15667;52.376;9.708;2022-08-24T18:47:08;26.90;86.10
28438;DHT22;15667;52.376;9.708;2022-08-24T18:49:36;26.90;86.40
28438;DHT22;15667;52.376;9.708;2022-08-24T18:52:02;26.90;86.60
28438;DHT22;15667;52.376;9.708;2022-08-24T18:54:35;26.80;87.10
28438;DHT22;15667;52.376;9.708;2022-08-24T18:57:01;26.70;87.50
28438;DHT22;15667;52.376;9.708;2022-08-24T18:59:53;26.70;87.90
28438;DHT22;15667;52.376;9.708;2022-08-24T19:02:21;26.70;88.10
28438;DHT22;15667;52.376;9.708;2022-08-24T19:05:06;26.60;88.00
28438;DHT22;15667;52.376;9.708;2022-08-24T19:07:41;26.50;87.80
28438;DHT22;15667;52.376;9.708;2022-08-24T19:10:10;26.50;88.50
28438;DHT22;15667;52.376;9.708;2022-08-24T19:12:38;26.50;87.80
28438;DHT22;15667;52.376;9.708;2022-08-24T19:15:08;26.50;88.10
28438;DHT22;15667;52.376;9.708;2022-08-24T19:17:34;26.50;88.10
28438;DHT22;15667;52.376;9.708;2022-08-24T19:20:00;26.40;88.00
28438;DHT22;15667;52.376;9.708;2022-08-24T19:22:26;26.40;88.40
28438;DHT22;15667;52.376;9.708;2022-08-24T19:24:56;26.30;89.10
28438;DHT22;15667;52.376;9.708;2022-08-24T19:27:23;26.30;89.00
28438;DHT22;15667;52.376;9.708;2022-08-24T19:29:50;26.20;88.80
28438;DHT22;15667;52.376;9.708;2022-08-24T19:32:19;26.10;89.20
28438;DHT22;15667;52.376;9.708;2022-08-24T19:34:50;26.10;89.90
28438;DHT22;15667;52.376;9.708;2022-08-24T19:37:16;26.10;90.10
28438;DHT22;15667;52.376;9.708;2022-08-24T19:39:41;26.00;90.10
28438;DHT22;15667;52.376;9.708;2022-08-24T19:42:07;26.00;90.20
28438;DHT22;15667;52.376;9.708;2022-08-24T19:44:35;26.00;90.70
28438;DHT22;15667;52.376;9.708;2022-08-24T19:47:19;25.90;90.70
28438;DHT22;15667;52.376;9.708;2022-08-24T19:49:45;25.80;90.80
28438;DHT22;15667;52.376;9.708;2022-08-24T19:52:11;25.80;91.10
28438;DHT22;15667;52.376;9.708;2022-08-24T19:54:41;25.70;91.50
28438;DHT22;15667;52.376;9.708;2022-08-24T19:59:50;25.60;91.70
28438;DHT22;15667;52.376;9.708;2022-08-24T20:02:16;25.50;92.00
28438;DHT22;15667;52.376;9.708;2022-08-24T20:04:45;25.50;92.10
28438;DHT22;15667;52.376;9.708;2022-08-24T20:07:21;25.40;92.30
28438;DHT22;15667;52.376;9.708;2022-08-24T20:09:47;25.40;92.50
28438;DHT22;15667;52.376;9.708;2022-08-24T20:12:12;25.40;92.80
28438;DHT22;15667;52.376;9.708;2022-08-24T20:14:38;25.30;92.60
28438;DHT22;15667;52.376;9.708;2022-08-24T20:17:20;25.20;92.90
28438;DHT22;15667;52.376;9.708;2022-08-24T20:19:48;25.20;92.80
28438;DHT22;15667;52.376;9.708;2022-08-24T20:22:14;25.10;93.10
28438;DHT22;15667;52.376;9.708;2022-08-24T20:24:40;25.10;93.10
28438;DHT22;15667;52.376;9.708;2022-08-24T20:27:07;25.10;93.20
28438;DHT22;15667;52.376;9.708;2022-08-24T20:29:33;25.10;93.30
28438;DHT22;15667;52.376;9.708;2022-08-24T20:31:58;25.00;93.40
28438;DHT22;15667;52.376;9.708;2022-08-24T20:34:27;25.00;93.50
28438;DHT22;15667;52.376;9.708;2022-08-24T20:36:53;25.00;93.60
28438;DHT22;15667;52.376;9.708;2022-08-24T20:39:23;24.90;93.70
28438;DHT22;15667;52.376;9.708;2022-08-24T20:41:51;24.90;93.80
28438;DHT22;15667;52.376;9.708;2022-08-24T20:44:18;24.80;94.10
28438;DHT22;15667;52.376;9.708;2022-08-24T20:46:44;24.80;94.40
28438;DHT22;15667;52.376;9.708;2022-08-24T20:49:10;24.80;94.20
28438;DHT22;15667;52.376;9.708;2022-08-24T20:51:39;24.70;94.30
28438;DHT22;15667;52.376;9.708;2022-08-24T20:54:11;24.70;94.60
28438;DHT22;15667;52.376;9.708;2022-08-24T20:56:39;24.70;94.70
28438;DHT22;15667;52.376;9.708;2022-08-24T20:59:28;24.70;94.80
28438;DHT22;15667;52.376;9.708;2022-08-24T21:01:57;24.60;95.00
28438;DHT22;15667;52.376;9.708;2022-08-24T21:04:24;24.50;95.00
28438;DHT22;15667;52.376;9.708;2022-08-24T21:06:53;24.60;95.50
28438;DHT22;15667;52.376;9.708;2022-08-24T21:09:18;24.50;95.10
28438;DHT22;15667;52.376;9.708;2022-08-24T21:11:49;24.50;95.50
28438;DHT22;15667;52.376;9.708;2022-08-24T21:14:15;24.50;95.30
28438;DHT22;15667;52.376;9.708;2022-08-24T21:16:42;24.40;95.40
28438;DHT22;15667;52.376;9.708;2022-08-24T21:19:09;24.50;95.50
28438;DHT22;15667;52.376;9.708;2022-08-24T21:21:35;24.50;95.50
28438;DHT22;15667;52.376;9.708;2022-08-24T21:27:04;24.40;95.80
28438;DHT22;15667;52.376;9.708;2022-08-24T21:29:30;24.20;96.00
28438;DHT22;15667;52.376;9.708;2022-08-24T21:31:59;24.20;96.10
28438;DHT22;15667;52.376;9.708;2022-08-24T21:34:46;24.30;96.10
28438;DHT22;15667;52.376;9.708;2022-08-24T21:37:17;24.20;96.20
28438;DHT22;15667;52.376;9.708;2022-08-24T21:39:47;24.20;96.60
28438;DHT22;15667;52.376;9.708;2022-08-24T21:42:14;24.10;96.60
28438;DHT22;15667;52.376;9.708;2022-08-24T21:44:44;24.10;96.70
28438;DHT22;15667;52.376;9.708;2022-08-24T21:47:10;24.10;96.80
28438;DHT22;15667;52.376;9.708;2022-08-24T21:49:40;24.00;97.00
28438;DHT22;15667;52.376;9.708;2022-08-24T21:52:06;23.90;97.10
28438;DHT22;15667;52.376;9.708;2022-08-24T21:54:32;23.90;97.30
28438;DHT22;15667;52.376;9.708;2022-08-24T21:56:59;23.90;97.60
28438;DHT22;15667;52.376;9.708;2022-08-24T21:59:25;23.80;97.50
28438;DHT22;15667;52.376;9.708;2022-08-24T22:01:51;23.70;98.00
28438;DHT22;15667;52.376;9.708;2022-08-24T22:04:17;23.80;97.80
28438;DHT22;15667;52.376;9.708;2022-08-24T22:06:43;23.70;98.10
28438;DHT22;15667;52.376;9.708;2022-08-24T22:09:08;23.70;98.00
28438;DHT22;15667;52.376;9.708;2022-08-24T22:11:34;23.60;98.50
28438;DHT22;15667;52.376;9.708;2022-08-24T22:14:01;23.70;98.40
28438;DHT22;15667;52.376;9.708;2022-08-24T22:16:27;23.60;98.70
28438;DHT22;15667;52.376;9.708;2022-08-24T22:18:53;23.50;98.60
28438;DHT22;15667;52.376;9.708;2022-08-24T22:21:22;23.50;98.90
28438;DHT22;15667;52.376;9.708;2022-08-24T22:23:48;23.50;98.80
28438;DHT22;15667;52.376;9.708;2022-08-24T22:26:14;23.50;98.80
28438;DHT22;15667;52.376;9.708;2022-08-24T22:28:40;23.50;98.90
28438;DHT22;15667;52.376;9.708;2022-08-24T22:31:22;23.40;99.10
28438;DHT22;15667;52.376;9.708;2022-08-24T22:33:48;23.50;99.10
28438;DHT22;15667;52.376;9.708;2022-08-24T22:36:15;23.40;99.10
28438;DHT22;15667;52.376;9.708;2022-08-24T22:38:41;23.30;99.40
28438;DHT22;15667;52.376;9.708;2022-08-24T22:41:07;23.20;99.50
28438;DHT22;15667;52.376;9.708;2022-08-24T22:43:33;23.30;99.70
28438;DHT22;15667;52.376;9.708;2022-08-24T22:46:18;23.30;99.70
28438;DHT22;15667;52.376;9.708;2022-08-24T22:48:44;23.30;99.90
28438;DHT22;15667;52.376;9.708;2022-08-24T22:51:11;23.20;99.90
28438;DHT22;15667;52.376;9.708;2022-08-24T22:53:37;23.20;99.90
28438;DHT22;15667;52.376;9.708;2022-08-24T22:56:12;23.20;99.90
28438;DHT22;15667;52.376;9.708;2022-08-24T22:58:37;23.20;99.90
28438;DHT22;15667;52.376;9.708;2022-08-24T23:01:03;23.10;99.90
28438;DHT22;15667;52.376;9.708;2022-08-24T23:03:32;23.00;99.90
28438;DHT22;15667;52.376;9.708;2022-08-24T23:05:57;23.00;99.90
28438;DHT22;15667;52.376;9.708;2022-08-24T23:08:23;23.00;99.90
28438;DHT22;15667;52.376;9.708;2022-08-24T23:10:49;23.00;99.90
28438;DHT22;15667;52.376;9.708;2022-08-24T23:13:15;22.90;99.90
28438;DHT22;15667;52.376;9.708;2022-08-24T23:15:41;22.90;99.90
28438;DHT22;15667;52.376;9.708;2022-08-24T23:18:07;22.90;99.90
28438;DHT22;15667;52.376;9.708;2022-08-24T23:20:52;22.90;99.90
28438;DHT22;15667;52.376;9.708;2022-08-24T23:23:18;22.90;99.90
28438;DHT22;15667;52.376;9.708;2022-08-24T23:25:44;22.80;99.90
28438;DHT22;15667;52.376;9.708;2022-08-24T23:28:09;22.80;99.90
28438;DHT22;15667;52.376;9.708;2022-08-24T23:30:35;22.80;99.90
28438;DHT22;15667;52.376;9.708;2022-08-24T23:33:01;22.70;99.90
28438;DHT22;15667;52.376;9.708;2022-08-24T23:35:27;22.60;99.90
28438;DHT22;15667;52.376;9.708;2022-08-24T23:37:53;22.60;99.90
28438;DHT22;15667;52.376;9.708;2022-08-24T23:40:18;22.50;99.90
28438;DHT22;15667;52.376;9.708;2022-08-24T23:42:44;22.50;99.90
28438;DHT22;15667;52.376;9.708;2022-08-24T23:45:10;22.30;99.90
28438;DHT22;15667;52.376;9.708;2022-08-24T23:47:36;22.40;99.90
28438;DHT22;15667;52.376;9.708;2022-08-24T23:50:03;22.40;99.90
28438;DHT22;15667;52.376;9.708;2022-08-24T23:52:29;22.40;99.90
28438;DHT22;15667;52.376;9.708;2022-08-24T23:54:58;22.40;99.90
28438;DHT22;15667;52.376;9.708;2022-08-24T23:57:23;22.40;99.90
28438;DHT22;15667;52.376;9.708;2022-08-24T23:59:49;22.40;99.90
